F/V Adeline Stephen — FGUF — position and weather

sailwx.info

Track history (hours):
 
Tides and Currents Weather Stations Pressure Air Temp Water Temp Dewpoint Dewpoint Depression Visibility Wind Speed Wind Dir Waves Ship Positions

F/V Adeline Stephen

Last reported at 2017-Jan-24 10:03 UTC. Time now 2017-Jan-24 19:28 UTC.
Position N 47°28' W 004°01'.

Length 18 m.

Type: Fishing. MMSI: 228929000.

Date/timePositionNaut miles runAvg speedWind from/ knotsBaromVisibWave heightAir tempDewpointWater temp
2017-Jan-24 10:03N 47°28' W 004°01'14 3.0
2017-Jan-24 05:21N 47°25' W 003°41'2 3.1
2017-Jan-24 04:33N 47°25' W 003°38'2 1.8
2017-Jan-24 03:24N 47°26' W 003°41'2 2.1
2017-Jan-24 02:33N 47°26' W 003°38'4 3.6
2017-Jan-24 01:33N 47°29' W 003°36'3 2.8
2017-Jan-24 00:33N 47°32' W 003°36'3 2.8
2017-Jan-23 23:33N 47°30' W 003°39'3 2.6
2017-Jan-23 22:33N 47°29' W 003°35'3 3.1
2017-Jan-23 21:33N 47°32' W 003°37'3 3.1
2017-Jan-23 20:29N 47°29' W 003°39'3 3.4
2017-Jan-23 19:29N 47°25' W 003°38'3 3.3
2017-Jan-23 18:33N 47°25' W 003°42'4 3.5
2017-Jan-23 17:31N 47°26' W 003°47'9 2.1
2017-Jan-23 13:14N 47°28' W 004°01'8 2.9
2017-Jan-23 10:29N 47°29' W 003°49'2 2.0
2017-Jan-23 09:33N 47°31' W 003°50'2 1.7
2017-Jan-23 08:33N 47°29' W 003°50'4 2.2
2017-Jan-23 06:33N 47°26' W 003°46'4 4.0
2017-Jan-23 05:33N 47°27' W 003°40'3 3.1
2017-Jan-23 04:33N 47°30' W 003°40'7 6.7
2017-Jan-23 03:33N 47°36' W 003°36'9 8.6
2017-Jan-23 02:33N 47°41' W 003°25'4 3.7
2017-Jan-23 01:33N 47°44' W 003°22'0 0.1
2017-Jan-23 00:33N 47°44' W 003°22'7 6.6
2017-Jan-22 23:33N 47°40' W 003°30'9 8.6
2017-Jan-22 22:33N 47°32' W 003°35'3 2.7
2017-Jan-22 21:33N 47°31' W 003°39'3 2.7
2017-Jan-22 20:33N 47°29' W 003°36'3 2.8
2017-Jan-22 19:33N 47°32' W 003°37'10 3.3
2017-Jan-22 16:33N 47°26' W 003°49'2 1.9
2017-Jan-22 15:21N 47°28' W 003°48'3 3.4
2017-Jan-22 14:33N 47°31' W 003°49'3 2.6
2017-Jan-22 13:29N 47°32' W 003°52'3 2.2
2017-Jan-22 12:15N 47°32' W 003°48'3 3.7
2017-Jan-22 11:32N 47°29' W 003°50'6 2.6
2017-Jan-22 09:17N 47°25' W 003°43'1 1.5
2017-Jan-22 08:23N 47°26' W 003°45'6 3.3
2017-Jan-22 06:33N 47°28' W 003°37'3 3.2
2017-Jan-22 05:33N 47°31' W 003°35'3 2.7
2017-Jan-22 04:33N 47°31' W 003°39'3 2.6
2017-Jan-22 03:32N 47°29' W 003°36'2 2.5
2017-Jan-22 02:33N 47°31' W 003°36'3 2.6
2017-Jan-22 01:33N 47°30' W 003°39'3 2.9
2017-Jan-22 00:33N 47°30' W 003°35'3 3.1
2017-Jan-21 23:33N 47°32' W 003°38'2 1.1
2017-Jan-21 21:32N 47°31' W 003°35'4 2.6
2017-Jan-21 20:07N 47°29' W 003°41'6 3.9
2017-Jan-21 18:32N 47°26' W 003°48'4 4.0
2017-Jan-21 17:28N 47°26' W 003°54'5 3.5
2017-Jan-21 16:09N 47°27' W 004°01'9 0.8
2017-Jan-21 04:04N 47°33' W 003°50'5 9.1
2017-Jan-21 03:33N 47°35' W 003°44'9 9.1
2017-Jan-21 02:34N 47°40' W 003°32'8 7.8
2017-Jan-21 01:33N 47°44' W 003°22'0 0.0
2017-Jan-21 00:33N 47°44' W 003°22'7 6.5
2017-Jan-20 23:33N 47°40' W 003°30'8 8.1
2017-Jan-20 22:33N 47°33' W 003°36'4 1.8
2017-Jan-20 20:32N 47°29' W 003°36'10 2.1
2017-Jan-20 15:34N 47°29' W 003°51'3 3.3
2017-Jan-20 14:30N 47°31' W 003°48'3 1.1
2017-Jan-20 11:24N 47°28' W 003°48'3 3.4
2017-Jan-20 10:31N 47°30' W 003°51'3 2.1
2017-Jan-20 09:12N 47°29' W 003°48'6 0.9
2017-Jan-20 02:27N 47°27' W 003°56'3 0.3
2017-Jan-19 16:22N 47°29' W 003°52'3 3.2
2017-Jan-19 15:31N 47°31' W 003°50'3 3.6
2017-Jan-19 14:34N 47°33' W 003°46'5 1.3
2017-Jan-19 10:27N 47°29' W 003°51'6 0.4
2017-Jan-18 20:10N 47°24' W 003°47'3 4.6
2017-Jan-18 19:26N 47°27' W 003°45'8 8.9
2017-Jan-18 18:33N 47°34' W 003°41'9 8.8
2017-Jan-18 17:34N 47°40' W 003°31'7 7.2
2017-Jan-18 16:34N 47°44' W 003°22'  
2017-Jan-16 01:28N 47°44' W 003°22'0 0.0
2017-Jan-16 00:33N 47°44' W 003°22'2 1.7
2017-Jan-15 23:34N 47°42' W 003°22'7 7.3
2017-Jan-15 22:33N 47°39' W 003°32'7 6.5
2017-Jan-15 21:33N 47°33' W 003°37'3 3.0
2017-Jan-15 20:33N 47°30' W 003°37'8 1.6
2017-Jan-15 15:27N 47°29' W 003°48'0 0.2
2017-Jan-15 13:34N 47°29' W 003°49'  
Track history (hours):
 
Tides and Currents Weather Stations Pressure Air Temp Water Temp Dewpoint Dewpoint Depression Visibility Wind Speed Wind Dir Waves Ship Positions

F/V Adeline Stephen

Last reported at 2017-Jan-24 10:03 UTC. Time now 2017-Jan-24 19:28 UTC.
Position N 47°28' W 004°01'.

Length 18 m.

Type: Fishing. MMSI: 228929000.

Date/timePositionNaut miles runAvg speedWind from/ knotsBaromVisibWave heightAir tempDewpointWater temp
2017-Jan-24 10:03N 47°28' W 004°01'14 3.0
2017-Jan-24 05:21N 47°25' W 003°41'2 3.1
2017-Jan-24 04:33N 47°25' W 003°38'2 1.8
2017-Jan-24 03:24N 47°26' W 003°41'2 2.1
2017-Jan-24 02:33N 47°26' W 003°38'4 3.6
2017-Jan-24 01:33N 47°29' W 003°36'3 2.8
2017-Jan-24 00:33N 47°32' W 003°36'3 2.8
2017-Jan-23 23:33N 47°30' W 003°39'3 2.6
2017-Jan-23 22:33N 47°29' W 003°35'3 3.1
2017-Jan-23 21:33N 47°32' W 003°37'3 3.1
2017-Jan-23 20:29N 47°29' W 003°39'3 3.4
2017-Jan-23 19:29N 47°25' W 003°38'3 3.3
2017-Jan-23 18:33N 47°25' W 003°42'4 3.5
2017-Jan-23 17:31N 47°26' W 003°47'9 2.1
2017-Jan-23 13:14N 47°28' W 004°01'8 2.9
2017-Jan-23 10:29N 47°29' W 003°49'2 2.0
2017-Jan-23 09:33N 47°31' W 003°50'2 1.7
2017-Jan-23 08:33N 47°29' W 003°50'4 2.2
2017-Jan-23 06:33N 47°26' W 003°46'4 4.0
2017-Jan-23 05:33N 47°27' W 003°40'3 3.1
2017-Jan-23 04:33N 47°30' W 003°40'7 6.7
2017-Jan-23 03:33N 47°36' W 003°36'9 8.6
2017-Jan-23 02:33N 47°41' W 003°25'4 3.7
2017-Jan-23 01:33N 47°44' W 003°22'0 0.1
2017-Jan-23 00:33N 47°44' W 003°22'7 6.6
2017-Jan-22 23:33N 47°40' W 003°30'9 8.6
2017-Jan-22 22:33N 47°32' W 003°35'3 2.7
2017-Jan-22 21:33N 47°31' W 003°39'3 2.7
2017-Jan-22 20:33N 47°29' W 003°36'3 2.8
2017-Jan-22 19:33N 47°32' W 003°37'10 3.3
2017-Jan-22 16:33N 47°26' W 003°49'2 1.9
2017-Jan-22 15:21N 47°28' W 003°48'3 3.4
2017-Jan-22 14:33N 47°31' W 003°49'3 2.6
2017-Jan-22 13:29N 47°32' W 003°52'3 2.2
2017-Jan-22 12:15N 47°32' W 003°48'3 3.7
2017-Jan-22 11:32N 47°29' W 003°50'6 2.6
2017-Jan-22 09:17N 47°25' W 003°43'1 1.5
2017-Jan-22 08:23N 47°26' W 003°45'6 3.3
2017-Jan-22 06:33N 47°28' W 003°37'3 3.2
2017-Jan-22 05:33N 47°31' W 003°35'3 2.7
2017-Jan-22 04:33N 47°31' W 003°39'3 2.6
2017-Jan-22 03:32N 47°29' W 003°36'2 2.5
2017-Jan-22 02:33N 47°31' W 003°36'3 2.6
2017-Jan-22 01:33N 47°30' W 003°39'3 2.9
2017-Jan-22 00:33N 47°30' W 003°35'3 3.1
2017-Jan-21 23:33N 47°32' W 003°38'2 1.1
2017-Jan-21 21:32N 47°31' W 003°35'4 2.6
2017-Jan-21 20:07N 47°29' W 003°41'6 3.9
2017-Jan-21 18:32N 47°26' W 003°48'4 4.0
2017-Jan-21 17:28N 47°26' W 003°54'5 3.5
2017-Jan-21 16:09N 47°27' W 004°01'9 0.8
2017-Jan-21 04:04N 47°33' W 003°50'5 9.1
2017-Jan-21 03:33N 47°35' W 003°44'9 9.1
2017-Jan-21 02:34N 47°40' W 003°32'8 7.8
2017-Jan-21 01:33N 47°44' W 003°22'0 0.0
2017-Jan-21 00:33N 47°44' W 003°22'7 6.5
2017-Jan-20 23:33N 47°40' W 003°30'8 8.1
2017-Jan-20 22:33N 47°33' W 003°36'4 1.8
2017-Jan-20 20:32N 47°29' W 003°36'10 2.1
2017-Jan-20 15:34N 47°29' W 003°51'3 3.3
2017-Jan-20 14:30N 47°31' W 003°48'3 1.1
2017-Jan-20 11:24N 47°28' W 003°48'3 3.4
2017-Jan-20 10:31N 47°30' W 003°51'3 2.1
2017-Jan-20 09:12N 47°29' W 003°48'6 0.9
2017-Jan-20 02:27N 47°27' W 003°56'3 0.3
2017-Jan-19 16:22N 47°29' W 003°52'3 3.2
2017-Jan-19 15:31N 47°31' W 003°50'3 3.6
2017-Jan-19 14:34N 47°33' W 003°46'5 1.3
2017-Jan-19 10:27N 47°29' W 003°51'6 0.4
2017-Jan-18 20:10N 47°24' W 003°47'3 4.6
2017-Jan-18 19:26N 47°27' W 003°45'8 8.9
2017-Jan-18 18:33N 47°34' W 003°41'9 8.8
2017-Jan-18 17:34N 47°40' W 003°31'7 7.2
2017-Jan-18 16:34N 47°44' W 003°22'  
2017-Jan-16 01:28N 47°44' W 003°22'0 0.0
2017-Jan-16 00:33N 47°44' W 003°22'2 1.7
2017-Jan-15 23:34N 47°42' W 003°22'7 7.3
2017-Jan-15 22:33N 47°39' W 003°32'7 6.5
2017-Jan-15 21:33N 47°33' W 003°37'3 3.0
2017-Jan-15 20:33N 47°30' W 003°37'8 1.6
2017-Jan-15 15:27N 47°29' W 003°48'0 0.2
2017-Jan-15 13:34N 47°29' W 003°49'  

Dump ship's entire track history